createdAt,value
2023-08-30T00:00:54.164Z,98343.94
2023-08-30T00:03:20.922Z,98400.53
2023-08-30T00:05:47.415Z,98401.31
2023-08-30T00:08:20.679Z,98401.31
2023-08-30T00:10:47.559Z,98408.78
2023-08-30T00:13:14.176Z,98413.88
2023-08-30T00:15:40.719Z,98418.06
2023-08-30T00:18:07.564Z,98410.44
2023-08-30T00:20:35.148Z,98412.75
2023-08-30T00:23:01.768Z,98423.03
2023-08-30T00:25:28.614Z,98396.44
2023-08-30T00:27:55.136Z,98415.03
2023-08-30T00:30:21.668Z,98423.28
2023-08-30T00:32:48.183Z,98413.13
2023-08-30T00:35:14.807Z,98424.94
2023-08-30T00:37:41.396Z,98425.78
2023-08-30T00:40:08.333Z,98415.47
2023-08-30T00:42:34.942Z,98391.06
2023-08-30T00:45:01.413Z,98407.78
2023-08-30T00:47:28.544Z,98408.09
2023-08-30T00:49:55.372Z,98431.78
2023-08-30T00:52:22.082Z,98424.09
2023-08-30T00:54:49.014Z,98431.72
2023-08-30T00:57:15.941Z,98426.78
2023-08-30T00:59:42.455Z,98436.75
2023-08-30T01:02:09.500Z,98436.72
2023-08-30T01:04:36.040Z,98435.13
2023-08-30T01:07:02.603Z,98405.66
2023-08-30T01:09:29.257Z,98440.25
2023-08-30T01:12:05.474Z,98441.84
2023-08-30T01:14:53.522Z,98434.28
2023-08-30T01:17:22.989Z,98422.34
2023-08-30T01:19:57.893Z,98421.53
2023-08-30T01:22:44.804Z,98410.41
2023-08-30T01:25:20.965Z,98412.00
2023-08-30T01:27:49.481Z,98407.88
2023-08-30T01:30:16.990Z,98395.25
2023-08-30T01:32:44.548Z,98412.31
2023-08-30T01:35:11.714Z,98393.69
2023-08-30T01:37:39.419Z,98420.66
2023-08-30T01:40:08.369Z,98407.09
2023-08-30T01:42:36.956Z,98401.00
2023-08-30T01:45:04.674Z,98413.09
2023-08-30T01:47:32.499Z,98412.13
2023-08-30T01:49:59.638Z,98405.59
2023-08-30T01:52:27.842Z,98416.53
2023-08-30T01:54:54.697Z,98411.53
2023-08-30T01:57:21.500Z,98414.00
2023-08-30T01:59:48.085Z,98418.31
2023-08-30T02:02:14.636Z,98394.53
2023-08-30T02:04:41.418Z,98410.78
2023-08-30T02:07:18.522Z,98419.19
2023-08-30T02:09:58.796Z,98413.16
2023-08-30T02:12:28.182Z,98409.91
2023-08-30T02:14:56.059Z,98412.47
2023-08-30T02:17:23.593Z,98391.31
2023-08-30T02:19:50.224Z,98419.00
2023-08-30T02:22:16.730Z,98409.53
2023-08-30T02:24:43.171Z,98419.50
2023-08-30T02:27:09.623Z,98415.19
2023-08-30T02:29:36.097Z,98394.13
2023-08-30T02:32:02.845Z,98403.53
2023-08-30T02:34:29.356Z,98420.47
2023-08-30T02:36:55.887Z,98428.97
2023-08-30T02:39:22.438Z,98428.94
2023-08-30T02:41:48.977Z,98428.84
2023-08-30T02:44:15.501Z,98436.44
2023-08-30T02:46:42.804Z,98433.97
2023-08-30T02:49:10.472Z,98439.97
2023-08-30T02:51:36.941Z,98403.53
2023-08-30T02:54:03.825Z,98428.84
2023-08-30T02:56:30.636Z,98427.97
2023-08-30T02:58:57.121Z,98434.06
2023-08-30T03:01:23.703Z,98441.88
2023-08-30T03:03:50.217Z,98435.13
2023-08-30T03:06:16.676Z,98436.84
2023-08-30T03:08:43.147Z,98436.88
2023-08-30T03:11:14.050Z,98441.91
2023-08-30T03:13:40.742Z,98429.13
2023-08-30T03:16:17.196Z,98404.56
2023-08-30T03:18:44.870Z,98428.97
2023-08-30T03:21:12.329Z,98431.63
2023-08-30T03:23:39.442Z,98412.25
2023-08-30T03:26:10.664Z,98409.72
2023-08-30T03:28:37.455Z,98435.88
2023-08-30T03:31:21.443Z,98432.47
2023-08-30T03:33:49.109Z,98429.84
2023-08-30T03:36:17.416Z,98415.69
2023-08-30T03:38:44.914Z,98431.50
2023-08-30T03:41:12.548Z,98435.00
2023-08-30T03:43:39.282Z,98439.22
2023-08-30T03:46:05.877Z,98448.47
2023-08-30T03:48:33.160Z,98440.72
2023-08-30T03:50:59.804Z,98414.47
2023-08-30T03:53:26.408Z,98436.25
2023-08-30T03:55:52.966Z,98436.38
2023-08-30T03:58:20.862Z,98443.13
2023-08-30T04:00:47.485Z,98433.03
2023-08-30T04:03:15.807Z,98445.69
2023-08-30T04:05:43.018Z,98438.88
2023-08-30T04:08:10.710Z,98417.16
2023-08-30T04:10:38.554Z,98424.03
2023-08-30T04:13:05.934Z,98443.19
2023-08-30T04:15:39.316Z,98454.22
2023-08-30T04:18:07.624Z,98426.56
2023-08-30T04:20:35.197Z,98439.31
2023-08-30T04:23:02.778Z,98470.50
2023-08-30T04:25:30.395Z,98467.00
2023-08-30T04:27:57.113Z,98461.00
2023-08-30T04:30:23.797Z,98468.66
2023-08-30T04:32:50.409Z,98464.31
2023-08-30T04:35:17.019Z,98481.19
2023-08-30T04:37:43.920Z,98476.81
2023-08-30T04:40:11.025Z,98482.75
2023-08-30T04:42:38.925Z,98477.53
2023-08-30T04:45:06.219Z,98482.63
2023-08-30T04:47:33.348Z,98479.09
2023-08-30T04:50:00.657Z,98467.16
2023-08-30T04:52:27.321Z,98463.66
2023-08-30T04:54:54.028Z,98470.38
2023-08-30T04:57:20.656Z,98468.81
2023-08-30T04:59:47.388Z,98453.38
2023-08-30T05:02:14.080Z,98460.16
2023-08-30T05:04:40.766Z,98440.88
2023-08-30T05:07:07.568Z,98463.75
2023-08-30T05:09:35.512Z,98470.66
2023-08-30T05:12:02.361Z,98464.75
2023-08-30T05:14:28.836Z,98457.91
2023-08-30T05:16:55.449Z,98446.94
2023-08-30T05:19:22.094Z,98473.84
2023-08-30T05:21:52.334Z,98446.78
2023-08-30T05:24:19.113Z,98474.44
2023-08-30T05:26:47.970Z,98467.75
2023-08-30T05:29:16.317Z,98448.09
2023-08-30T05:31:43.365Z,98453.19
2023-08-30T05:34:10.560Z,98467.97
2023-08-30T05:36:37.109Z,98485.09
2023-08-30T05:39:04.409Z,98489.41
2023-08-30T05:41:31.641Z,98491.28
2023-08-30T05:43:58.131Z,98496.47
2023-08-30T05:46:24.937Z,98501.56
2023-08-30T05:48:51.572Z,98494.38
2023-08-30T05:51:18.134Z,98488.94
2023-08-30T05:53:44.778Z,98491.41
2023-08-30T05:56:11.245Z,98475.31
2023-08-30T05:58:39.130Z,98471.84
2023-08-30T06:01:07.699Z,98477.66
2023-08-30T06:03:34.382Z,98448.72
2023-08-30T06:06:02.741Z,98490.09
2023-08-30T06:08:29.382Z,98487.47
2023-08-30T06:10:56.164Z,98500.91
2023-08-30T06:13:22.637Z,98499.13
2023-08-30T06:15:53.122Z,98503.28
2023-08-30T06:18:22.615Z,98511.13
2023-08-30T06:20:50.002Z,98514.75
2023-08-30T06:23:20.541Z,98509.09
2023-08-30T06:25:54.874Z,98487.06
2023-08-30T06:28:24.700Z,98481.56
2023-08-30T06:30:51.708Z,98513.13
2023-08-30T06:33:18.676Z,98484.22
2023-08-30T06:35:45.214Z,98514.81
2023-08-30T06:38:12.096Z,98501.38
2023-08-30T06:40:44.678Z,98513.25
2023-08-30T06:43:11.130Z,98511.31
2023-08-30T06:45:39.711Z,98505.56
2023-08-30T06:48:09.938Z,98508.97
2023-08-30T06:50:36.804Z,98506.28
2023-08-30T06:53:04.345Z,98504.66
2023-08-30T06:55:30.928Z,98508.03
2023-08-30T06:57:59.773Z,98502.53
2023-08-30T07:00:26.299Z,98498.97
2023-08-30T07:02:52.776Z,98497.22
2023-08-30T07:05:19.380Z,98510.75
2023-08-30T07:07:45.883Z,98513.50
2023-08-30T07:10:12.332Z,98517.66
2023-08-30T07:12:38.859Z,98507.53
2023-08-30T07:15:06.052Z,98519.09
2023-08-30T07:17:46.723Z,98510.56
2023-08-30T07:20:18.948Z,98526.69
2023-08-30T07:22:45.487Z,98520.94
2023-08-30T07:25:13.228Z,98533.66
2023-08-30T07:27:39.822Z,98505.72
2023-08-30T07:30:07.106Z,98534.69
2023-08-30T07:32:34.027Z,98543.22
2023-08-30T07:35:00.651Z,98542.13
2023-08-30T07:37:27.209Z,98479.91
2023-08-30T07:39:54.389Z,98538.81
2023-08-30T07:42:20.992Z,98511.94
2023-08-30T07:44:47.810Z,98545.56
2023-08-30T07:47:14.395Z,98533.03
2023-08-30T07:49:42.100Z,98545.25
2023-08-30T07:52:11.780Z,98560.59
2023-08-30T07:54:40.061Z,98566.84
2023-08-30T07:57:07.197Z,98557.63
2023-08-30T07:59:37.817Z,98559.84
2023-08-30T08:02:08.230Z,98565.34
2023-08-30T08:04:36.063Z,98538.28
2023-08-30T08:07:03.543Z,98564.41
2023-08-30T08:09:30.072Z,98549.84
2023-08-30T08:11:57.373Z,98573.22
2023-08-30T08:14:26.436Z,98569.97
2023-08-30T08:16:53.068Z,98571.13
2023-08-30T08:19:23.558Z,98565.50
2023-08-30T08:21:51.994Z,98572.16
2023-08-30T08:24:18.458Z,98568.38
2023-08-30T08:26:45.000Z,98580.44
2023-08-30T08:29:11.932Z,98577.03
2023-08-30T08:31:38.492Z,98557.59
2023-08-30T08:34:13.070Z,98573.38
2023-08-30T08:36:40.566Z,98542.56
2023-08-30T08:39:07.634Z,98564.44
2023-08-30T08:41:41.284Z,98560.50
2023-08-30T08:44:08.553Z,98579.75
2023-08-30T08:46:40.133Z,98586.00
2023-08-30T08:49:19.193Z,98583.34
2023-08-30T08:51:52.260Z,98581.63
2023-08-30T08:54:19.419Z,98579.25
2023-08-30T08:56:47.125Z,98587.50
2023-08-30T08:59:16.816Z,98591.22
2023-08-30T09:01:46.605Z,98597.69
2023-08-30T09:04:14.764Z,98597.88
2023-08-30T09:06:42.440Z,98550.78
2023-08-30T09:09:09.809Z,98591.53
2023-08-30T09:11:50.257Z,98558.47
2023-08-30T09:14:19.054Z,98591.44
2023-08-30T09:17:02.755Z,98602.78
2023-08-30T09:19:30.438Z,98600.59
2023-08-30T09:21:58.567Z,98554.81
2023-08-30T09:24:26.125Z,98588.75
2023-08-30T09:26:55.359Z,98609.03
2023-08-30T09:29:24.535Z,98607.63
2023-08-30T09:31:57.168Z,98607.84
2023-08-30T09:34:27.282Z,98623.00
2023-08-30T09:36:54.230Z,98620.09
2023-08-30T09:39:21.047Z,98614.97
2023-08-30T09:41:49.969Z,98613.41
2023-08-30T09:44:19.092Z,98592.16
2023-08-30T09:46:50.935Z,98621.81
2023-08-30T09:49:23.335Z,98625.28
2023-08-30T09:54:42.934Z,98610.81
2023-08-30T09:57:09.967Z,98626.25
2023-08-30T09:59:37.069Z,98620.88
2023-08-30T10:02:04.059Z,98624.94
2023-08-30T10:04:31.018Z,98632.09
2023-08-30T10:06:59.224Z,98632.97
2023-08-30T10:09:26.329Z,98627.69
2023-08-30T10:11:52.892Z,98635.88
2023-08-30T10:14:19.470Z,98624.84
2023-08-30T10:16:49.998Z,98633.28
2023-08-30T10:19:30.042Z,98627.03
2023-08-30T10:22:10.163Z,98626.13
2023-08-30T10:24:57.169Z,98603.13
2023-08-30T10:27:32.398Z,98584.75
2023-08-30T10:30:02.405Z,98591.91
2023-08-30T10:32:29.250Z,98624.03
2023-08-30T10:34:55.739Z,98606.78
2023-08-30T10:37:27.836Z,98614.50
2023-08-30T10:39:54.500Z,98623.06
2023-08-30T10:42:24.024Z,98621.06
2023-08-30T10:45:13.282Z,98626.81
2023-08-30T10:47:42.170Z,98625.06
2023-08-30T10:50:12.047Z,98609.81
2023-08-30T10:52:38.894Z,98607.91
2023-08-30T10:55:10.138Z,98607.13
2023-08-30T10:57:38.098Z,98609.97
2023-08-30T11:00:09.121Z,98612.44
2023-08-30T11:02:39.808Z,98576.56
2023-08-30T11:05:08.137Z,98606.91
2023-08-30T11:07:35.069Z,98599.59
2023-08-30T11:10:01.686Z,98602.63
2023-08-30T11:12:28.371Z,98586.81
2023-08-30T11:14:55.450Z,98606.81
2023-08-30T11:17:22.186Z,98607.50
2023-08-30T11:19:57.916Z,98610.81
2023-08-30T11:22:25.095Z,98601.09
2023-08-30T11:24:51.627Z,98599.75
2023-08-30T11:27:18.909Z,98609.88
2023-08-30T11:29:45.624Z,98608.22
2023-08-30T11:32:12.121Z,98611.00
2023-08-30T11:34:38.622Z,98607.09
2023-08-30T11:37:05.232Z,98606.75
2023-08-30T11:39:32.122Z,98614.31
2023-08-30T11:42:03.056Z,98596.00
2023-08-30T11:44:40.211Z,98617.97
2023-08-30T11:47:06.696Z,98618.28
2023-08-30T11:49:35.196Z,98610.19
2023-08-30T11:52:01.805Z,98601.25
2023-08-30T11:54:28.577Z,98624.13
2023-08-30T11:56:55.136Z,98609.22
2023-08-30T11:59:23.980Z,98610.41
2023-08-30T12:01:53.420Z,98610.69
2023-08-30T12:04:20.091Z,98613.44
2023-08-30T12:06:56.005Z,98600.47
2023-08-30T12:09:25.362Z,98606.06
2023-08-30T12:11:51.957Z,98608.06
2023-08-30T12:14:18.473Z,98608.00
2023-08-30T12:16:47.539Z,98587.94
2023-08-30T12:19:15.366Z,98599.63
2023-08-30T12:21:45.241Z,98610.25
2023-08-30T12:24:12.009Z,98615.09
2023-08-30T12:26:39.395Z,98609.81
2023-08-30T12:29:09.118Z,98599.63
2023-08-30T12:31:35.753Z,98604.25
2023-08-30T12:34:02.295Z,98610.94
2023-08-30T12:36:28.803Z,98603.84
2023-08-30T12:38:55.301Z,98608.97
2023-08-30T12:41:26.403Z,98590.41
2023-08-30T12:43:53.029Z,98592.22
2023-08-30T12:46:19.499Z,98591.66
2023-08-30T12:48:46.054Z,98584.72
2023-08-30T12:51:35.298Z,98579.50
2023-08-30T12:54:02.020Z,98585.59
2023-08-30T12:56:28.571Z,98587.16
2023-08-30T12:58:55.032Z,98574.97
2023-08-30T13:01:21.700Z,98580.53
2023-08-30T13:03:48.221Z,98550.34
2023-08-30T13:06:15.012Z,98577.22
2023-08-30T13:08:41.528Z,98595.38
2023-08-30T13:11:07.971Z,98592.78
2023-08-30T13:13:34.465Z,98584.16
2023-08-30T13:16:00.971Z,98578.66
2023-08-30T13:18:27.418Z,98553.34
2023-08-30T13:20:56.818Z,98554.53
2023-08-30T13:23:23.320Z,98583.00
2023-08-30T13:25:52.602Z,98581.25
2023-08-30T13:28:19.049Z,98592.22
2023-08-30T13:30:46.835Z,98587.94
2023-08-30T13:33:14.245Z,98582.34
2023-08-30T13:35:41.149Z,98574.03
2023-08-30T13:38:07.666Z,98585.22
2023-08-30T13:40:34.206Z,98575.41
2023-08-30T13:43:00.801Z,98572.69
2023-08-30T13:45:27.297Z,98548.22
2023-08-30T13:47:56.093Z,98581.00
2023-08-30T13:50:22.727Z,98583.47
2023-08-30T13:52:49.222Z,98593.63
2023-08-30T13:55:15.802Z,98598.69
2023-08-30T13:57:42.265Z,98586.81
2023-08-30T14:00:11.211Z,98578.34
2023-08-30T14:02:38.101Z,98590.66
2023-08-30T14:05:05.057Z,98598.47
2023-08-30T14:07:31.639Z,98600.88
2023-08-30T14:09:58.959Z,98602.81
2023-08-30T14:12:25.556Z,98581.97
2023-08-30T14:14:53.062Z,98563.31
2023-08-30T14:17:21.129Z,98589.22
2023-08-30T14:19:47.830Z,98605.28
2023-08-30T14:22:14.482Z,98598.75
2023-08-30T14:24:57.450Z,98602.94
2023-08-30T14:27:27.946Z,98599.72
2023-08-30T14:29:54.560Z,98597.22
2023-08-30T14:32:21.057Z,98598.47
2023-08-30T14:34:47.515Z,98606.44
2023-08-30T14:37:14.047Z,98623.06
2023-08-30T14:39:40.575Z,98620.19
2023-08-30T14:42:07.267Z,98621.53
2023-08-30T14:44:33.762Z,98630.28
2023-08-30T14:47:00.445Z,98626.91
2023-08-30T14:49:27.060Z,98612.34
2023-08-30T14:51:53.570Z,98625.13
2023-08-30T14:54:20.429Z,98612.34
2023-08-30T14:56:46.966Z,98625.97
2023-08-30T14:59:13.491Z,98629.50
2023-08-30T15:01:40.435Z,98633.66
2023-08-30T15:04:07.214Z,98635.50
2023-08-30T15:06:33.830Z,98627.75
2023-08-30T15:09:01.636Z,98621.63
2023-08-30T15:11:28.132Z,98583.91
2023-08-30T15:13:54.604Z,98594.16
2023-08-30T15:16:21.052Z,98625.28
2023-08-30T15:18:47.604Z,98624.31
2023-08-30T15:21:14.734Z,98622.31
2023-08-30T15:23:41.306Z,98626.28
2023-08-30T15:26:08.036Z,98620.22
2023-08-30T15:28:34.714Z,98614.66
2023-08-30T15:31:01.181Z,98552.16
2023-08-30T15:33:27.860Z,98611.34
2023-08-30T15:35:58.865Z,98616.28
2023-08-30T15:38:25.376Z,98611.41
2023-08-30T15:40:55.162Z,98619.50
2023-08-30T15:43:21.706Z,98619.28
2023-08-30T15:45:48.439Z,98616.94
2023-08-30T15:48:15.016Z,98625.03
2023-08-30T15:50:43.355Z,98618.56
2023-08-30T15:53:10.654Z,98630.47
2023-08-30T15:55:37.124Z,98631.66
2023-08-30T15:58:03.712Z,98630.34
2023-08-30T16:00:30.338Z,98645.13
2023-08-30T16:02:59.037Z,98649.66
2023-08-30T16:05:25.781Z,98653.41
2023-08-30T16:07:52.467Z,98634.13
2023-08-30T16:10:19.187Z,98657.88
2023-08-30T16:12:45.725Z,98650.97
2023-08-30T16:15:12.428Z,98654.41
2023-08-30T16:17:38.921Z,98663.78
2023-08-30T16:20:06.456Z,98660.31
2023-08-30T16:22:34.633Z,98657.66
2023-08-30T16:25:01.167Z,98653.13
2023-08-30T16:27:27.694Z,98654.09
2023-08-30T16:29:54.147Z,98650.72
2023-08-30T16:32:20.806Z,98653.22
2023-08-30T16:34:50.620Z,98656.88
2023-08-30T16:37:17.415Z,98626.53
2023-08-30T16:39:43.945Z,98652.59
2023-08-30T16:42:10.412Z,98662.94
2023-08-30T16:44:37.941Z,98656.38
2023-08-30T16:47:04.899Z,98652.53
2023-08-30T16:49:31.562Z,98666.16
2023-08-30T16:51:58.081Z,98628.41
2023-08-30T16:54:24.673Z,98672.25
2023-08-30T16:56:51.400Z,98672.22
2023-08-30T16:59:17.952Z,98678.31
2023-08-30T17:01:44.423Z,98677.38
2023-08-30T17:04:15.335Z,98631.59
2023-08-30T17:06:43.899Z,98660.88
2023-08-30T17:09:10.418Z,98661.94
2023-08-30T17:11:39.398Z,98657.72
2023-08-30T17:14:06.342Z,98644.28
2023-08-30T17:16:32.852Z,98670.63
2023-08-30T17:18:59.399Z,98668.13
2023-08-30T17:21:25.848Z,98659.75
2023-08-30T17:23:52.418Z,98664.19
2023-08-30T17:26:19.910Z,98679.03
2023-08-30T17:28:46.413Z,98666.31
2023-08-30T17:31:12.911Z,98664.78
2023-08-30T17:33:40.330Z,98664.25
2023-08-30T17:36:07.415Z,98666.94
2023-08-30T17:38:34.003Z,98679.72
2023-08-30T17:41:00.510Z,98680.78
2023-08-30T17:43:26.978Z,98680.09
2023-08-30T17:45:53.425Z,98684.59
2023-08-30T17:48:20.196Z,98683.06
2023-08-30T17:50:46.951Z,98703.69
2023-08-30T17:53:14.501Z,98695.16
2023-08-30T17:55:41.463Z,98703.09
2023-08-30T17:58:08.866Z,98703.41
2023-08-30T18:00:35.570Z,98696.94
2023-08-30T18:03:02.700Z,98707.53
2023-08-30T18:05:29.180Z,98714.66
2023-08-30T18:07:58.758Z,98701.28
2023-08-30T18:10:25.694Z,98724.44
2023-08-30T18:12:52.598Z,98726.31
2023-08-30T18:15:19.230Z,98719.66
2023-08-30T18:17:45.824Z,98719.78
2023-08-30T18:20:15.571Z,98720.88
2023-08-30T18:22:43.180Z,98722.59
2023-08-30T18:25:10.382Z,98736.38
2023-08-30T18:27:37.574Z,98738.22
2023-08-30T18:30:05.687Z,98735.03
2023-08-30T18:32:33.326Z,98728.34
2023-08-30T18:34:59.995Z,98728.66
2023-08-30T18:37:26.541Z,98735.72
2023-08-30T18:39:53.124Z,98712.28
2023-08-30T18:42:19.623Z,98739.50
2023-08-30T18:44:47.862Z,98748.03
2023-08-30T18:47:18.691Z,98748.13
2023-08-30T18:49:45.302Z,98756.81
2023-08-30T18:52:11.974Z,98756.81
2023-08-30T18:54:44.674Z,98754.31
2023-08-30T18:57:12.419Z,98761.19
2023-08-30T18:59:43.735Z,98760.41
2023-08-30T19:02:10.368Z,98763.94
2023-08-30T19:04:36.918Z,98772.63
2023-08-30T19:07:05.007Z,98764.97
2023-08-30T19:09:32.515Z,98773.53
2023-08-30T19:11:59.022Z,98770.22
2023-08-30T19:14:26.658Z,98766.03
2023-08-30T19:16:53.255Z,98772.84
2023-08-30T19:19:19.780Z,98764.34
2023-08-30T19:21:46.324Z,98741.53
2023-08-30T19:24:12.800Z,98768.78
2023-08-30T19:26:39.438Z,98760.44
2023-08-30T19:29:05.935Z,98753.78
2023-08-30T19:31:34.792Z,98758.66
2023-08-30T19:34:01.633Z,98757.94
2023-08-30T19:36:30.421Z,98753.88
2023-08-30T19:38:57.482Z,98724.56
2023-08-30T19:41:27.910Z,98758.63
2023-08-30T19:43:55.793Z,98713.25
2023-08-30T19:46:25.841Z,98764.88
2023-08-30T19:48:52.355Z,98767.53
2023-08-30T19:51:20.056Z,98756.59
2023-08-30T19:53:50.048Z,98754.06
2023-08-30T19:56:16.704Z,98750.91
2023-08-30T19:58:43.865Z,98751.09
2023-08-30T20:01:10.597Z,98718.28
2023-08-30T20:03:38.253Z,98743.78
2023-08-30T20:06:04.875Z,98749.94
2023-08-30T20:08:31.598Z,98760.94
2023-08-30T20:11:04.377Z,98765.16
2023-08-30T20:13:31.368Z,98773.69
2023-08-30T20:16:02.544Z,98787.34
2023-08-30T20:18:29.378Z,98794.25
2023-08-30T20:20:56.465Z,98784.06
2023-08-30T20:23:23.828Z,98800.44
2023-08-30T20:25:51.189Z,98786.69
2023-08-30T20:28:18.605Z,98777.59
2023-08-30T20:30:48.550Z,98795.31
2023-08-30T20:33:15.103Z,98789.25
2023-08-30T20:35:41.936Z,98788.38
2023-08-30T20:38:08.603Z,98779.06
2023-08-30T20:40:35.095Z,98778.78
2023-08-30T20:43:01.907Z,98749.84
2023-08-30T20:45:28.436Z,98759.31
2023-08-30T20:47:54.993Z,98764.41
2023-08-30T20:50:21.698Z,98791.47
2023-08-30T20:52:49.261Z,98782.22
2023-08-30T20:55:19.280Z,98763.66
2023-08-30T20:57:50.509Z,98790.16
2023-08-30T21:00:17.105Z,98792.91
2023-08-30T21:02:43.697Z,98800.53
2023-08-30T21:05:10.228Z,98796.19
2023-08-30T21:07:36.779Z,98774.34
2023-08-30T21:10:04.586Z,98805.72
2023-08-30T21:12:31.085Z,98803.97
2023-08-30T21:14:57.608Z,98810.84
2023-08-30T21:17:24.114Z,98806.59
2023-08-30T21:19:50.608Z,98811.75
2023-08-30T21:22:17.130Z,98810.03
2023-08-30T21:24:43.611Z,98813.56
2023-08-30T21:27:10.177Z,98809.38
2023-08-30T21:29:36.670Z,98825.53
2023-08-30T21:32:04.824Z,98762.91
2023-08-30T21:34:32.341Z,98792.56
2023-08-30T21:36:58.814Z,98834.91
2023-08-30T21:39:25.331Z,98825.59
2023-08-30T21:41:51.778Z,98831.66
2023-08-30T21:44:18.228Z,98829.19
2023-08-30T21:46:45.193Z,98796.13
2023-08-30T21:49:11.757Z,98820.81
2023-08-30T21:51:38.316Z,98825.13
2023-08-30T21:54:06.031Z,98820.00
2023-08-30T21:56:33.101Z,98809.88
2023-08-30T21:58:59.621Z,98816.00
2023-08-30T22:01:26.202Z,98811.84
2023-08-30T22:03:53.192Z,98810.19
2023-08-30T22:06:20.924Z,98813.69
2023-08-30T22:08:47.577Z,98808.63
2023-08-30T22:11:14.089Z,98791.88
2023-08-30T22:13:40.588Z,98827.63
2023-08-30T22:16:07.205Z,98820.75
2023-08-30T22:18:33.698Z,98824.97
2023-08-30T22:21:00.978Z,98827.47
2023-08-30T22:23:27.474Z,98813.00
2023-08-30T22:25:53.928Z,98813.78
2023-08-30T22:28:20.458Z,98824.75
2023-08-30T22:30:46.995Z,98824.03
2023-08-30T22:33:13.852Z,98828.41
2023-08-30T22:35:40.717Z,98827.63
2023-08-30T22:38:07.267Z,98828.50
2023-08-30T22:40:33.766Z,98836.97
2023-08-30T22:43:00.269Z,98831.84
2023-08-30T22:45:29.588Z,98842.94
2023-08-30T22:47:56.823Z,98845.50
2023-08-30T22:50:23.645Z,98820.06
2023-08-30T22:52:51.065Z,98837.91
2023-08-30T22:55:18.560Z,98841.47
2023-08-30T22:57:45.157Z,98852.59
2023-08-30T23:00:11.983Z,98820.38
2023-08-30T23:02:39.023Z,98856.75
2023-08-30T23:05:07.271Z,98850.75
2023-08-30T23:07:33.954Z,98855.09
2023-08-30T23:10:02.085Z,98847.63
2023-08-30T23:12:28.698Z,98850.06
2023-08-30T23:14:57.277Z,98842.41
2023-08-30T23:17:24.976Z,98817.81
2023-08-30T23:19:51.542Z,98846.81
2023-08-30T23:22:18.031Z,98850.22
2023-08-30T23:24:44.549Z,98849.34
2023-08-30T23:27:11.256Z,98814.59
2023-08-30T23:29:37.792Z,98843.63
2023-08-30T23:32:04.501Z,98803.84
2023-08-30T23:34:31.135Z,98861.41
2023-08-30T23:36:57.681Z,98865.69
2023-08-30T23:39:24.184Z,98845.28
2023-08-30T23:41:50.692Z,98849.56
2023-08-30T23:44:17.130Z,98859.84
2023-08-30T23:46:43.728Z,98865.75
2023-08-30T23:49:10.377Z,98870.03
2023-08-30T23:51:36.908Z,98863.25
2023-08-30T23:54:04.076Z,98861.53
2023-08-30T23:56:30.994Z,98846.34
2023-08-30T23:58:57.466Z,98841.09
